sensor_id;sensor_type;location;lat;lon;timestamp;P1;durP1;ratioP1;P2;durP2;ratioP2
66628;SDS011;53532;53.084;6.352;2023-04-25T00:00:27;17.33;;;6.28;;
66628;SDS011;53532;53.084;6.352;2023-04-25T00:02:53;18.00;;;6.38;;
66628;SDS011;53532;53.084;6.352;2023-04-25T00:05:24;21.13;;;5.30;;
66628;SDS011;53532;53.084;6.352;2023-04-25T00:07:51;20.80;;;5.30;;
66628;SDS011;53532;53.084;6.352;2023-04-25T00:10:18;20.38;;;6.18;;
66628;SDS011;53532;53.084;6.352;2023-04-25T00:12:44;24.02;;;6.03;;
66628;SDS011;53532;53.084;6.352;2023-04-25T00:15:11;20.73;;;6.03;;
66628;SDS011;53532;53.084;6.352;2023-04-25T00:17:37;17.63;;;5.60;;
66628;SDS011;53532;53.084;6.352;2023-04-25T00:20:03;23.73;;;5.88;;
66628;SDS011;53532;53.084;6.352;2023-04-25T00:22:30;21.52;;;6.13;;
66628;SDS011;53532;53.084;6.352;2023-04-25T00:24:57;18.67;;;6.00;;
66628;SDS011;53532;53.084;6.352;2023-04-25T00:27:25;21.42;;;5.97;;
66628;SDS011;53532;53.084;6.352;2023-04-25T00:29:51;19.20;;;5.47;;
66628;SDS011;53532;53.084;6.352;2023-04-25T00:32:17;20.30;;;6.03;;
66628;SDS011;53532;53.084;6.352;2023-04-25T00:34:43;24.52;;;6.03;;
66628;SDS011;53532;53.084;6.352;2023-04-25T00:37:09;19.17;;;5.53;;
66628;SDS011;53532;53.084;6.352;2023-04-25T00:39:36;17.92;;;5.53;;
66628;SDS011;53532;53.084;6.352;2023-04-25T00:42:04;21.55;;;5.43;;
66628;SDS011;53532;53.084;6.352;2023-04-25T00:44:30;16.52;;;5.28;;
66628;SDS011;53532;53.084;6.352;2023-04-25T00:47:00;20.83;;;4.82;;
66628;SDS011;53532;53.084;6.352;2023-04-25T00:49:27;17.77;;;4.65;;
66628;SDS011;53532;53.084;6.352;2023-04-25T00:51:53;16.95;;;4.65;;
66628;SDS011;53532;53.084;6.352;2023-04-25T00:54:20;17.90;;;4.57;;
66628;SDS011;53532;53.084;6.352;2023-04-25T00:56:46;22.42;;;5.47;;
66628;SDS011;53532;53.084;6.352;2023-04-25T00:59:14;23.80;;;5.57;;
66628;SDS011;53532;53.084;6.352;2023-04-25T01:01:40;13.97;;;4.23;;
66628;SDS011;53532;53.084;6.352;2023-04-25T01:04:07;18.85;;;5.30;;
66628;SDS011;53532;53.084;6.352;2023-04-25T01:06:33;16.33;;;4.43;;
66628;SDS011;53532;53.084;6.352;2023-04-25T01:08:59;21.23;;;5.30;;
66628;SDS011;53532;53.084;6.352;2023-04-25T01:11:25;17.77;;;4.80;;
66628;SDS011;53532;53.084;6.352;2023-04-25T01:13:51;17.27;;;5.22;;
66628;SDS011;53532;53.084;6.352;2023-04-25T01:16:19;16.10;;;4.83;;
66628;SDS011;53532;53.084;6.352;2023-04-25T01:18:46;14.88;;;4.57;;
66628;SDS011;53532;53.084;6.352;2023-04-25T01:21:14;16.40;;;4.35;;
66628;SDS011;53532;53.084;6.352;2023-04-25T01:23:41;17.20;;;4.30;;
66628;SDS011;53532;53.084;6.352;2023-04-25T01:26:07;13.77;;;4.25;;
66628;SDS011;53532;53.084;6.352;2023-04-25T01:28:34;13.93;;;4.57;;
66628;SDS011;53532;53.084;6.352;2023-04-25T01:31:00;16.75;;;5.20;;
66628;SDS011;53532;53.084;6.352;2023-04-25T01:33:27;17.17;;;4.13;;
66628;SDS011;53532;53.084;6.352;2023-04-25T01:35:53;18.23;;;4.70;;
66628;SDS011;53532;53.084;6.352;2023-04-25T01:38:20;20.38;;;5.15;;
66628;SDS011;53532;53.084;6.352;2023-04-25T01:40:47;16.42;;;4.32;;
66628;SDS011;53532;53.084;6.352;2023-04-25T01:43:15;18.08;;;4.65;;
66628;SDS011;53532;53.084;6.352;2023-04-25T01:45:41;15.00;;;4.13;;
66628;SDS011;53532;53.084;6.352;2023-04-25T01:48:07;14.07;;;4.47;;
66628;SDS011;53532;53.084;6.352;2023-04-25T01:50:33;20.20;;;4.60;;
66628;SDS011;53532;53.084;6.352;2023-04-25T01:53:00;17.67;;;4.28;;
66628;SDS011;53532;53.084;6.352;2023-04-25T01:55:28;19.58;;;4.65;;
66628;SDS011;53532;53.084;6.352;2023-04-25T01:57:54;16.67;;;3.97;;
66628;SDS011;53532;53.084;6.352;2023-04-25T02:00:21;17.42;;;4.35;;
66628;SDS011;53532;53.084;6.352;2023-04-25T02:02:47;16.63;;;4.57;;
66628;SDS011;53532;53.084;6.352;2023-04-25T02:05:15;17.30;;;4.70;;
66628;SDS011;53532;53.084;6.352;2023-04-25T02:07:41;22.70;;;4.43;;
66628;SDS011;53532;53.084;6.352;2023-04-25T02:10:08;19.95;;;4.43;;
66628;SDS011;53532;53.084;6.352;2023-04-25T02:12:36;19.67;;;4.80;;
66628;SDS011;53532;53.084;6.352;2023-04-25T02:15:02;16.23;;;4.85;;
66628;SDS011;53532;53.084;6.352;2023-04-25T02:17:29;18.02;;;5.00;;
66628;SDS011;53532;53.084;6.352;2023-04-25T02:19:56;16.88;;;4.32;;
66628;SDS011;53532;53.084;6.352;2023-04-25T02:22:22;18.13;;;4.55;;
66628;SDS011;53532;53.084;6.352;2023-04-25T02:24:49;21.90;;;4.87;;
66628;SDS011;53532;53.084;6.352;2023-04-25T02:27:15;19.15;;;4.40;;
66628;SDS011;53532;53.084;6.352;2023-04-25T02:29:42;15.10;;;4.28;;
66628;SDS011;53532;53.084;6.352;2023-04-25T02:32:08;14.15;;;4.35;;
66628;SDS011;53532;53.084;6.352;2023-04-25T02:34:35;16.58;;;3.97;;
66628;SDS011;53532;53.084;6.352;2023-04-25T02:37:01;17.17;;;4.07;;
66628;SDS011;53532;53.084;6.352;2023-04-25T02:39:27;15.80;;;3.70;;
66628;SDS011;53532;53.084;6.352;2023-04-25T02:41:53;14.93;;;3.85;;
66628;SDS011;53532;53.084;6.352;2023-04-25T02:44:20;16.42;;;3.70;;
66628;SDS011;53532;53.084;6.352;2023-04-25T02:46:47;14.52;;;3.40;;
66628;SDS011;53532;53.084;6.352;2023-04-25T02:49:13;17.95;;;3.97;;
66628;SDS011;53532;53.084;6.352;2023-04-25T02:51:40;17.77;;;3.65;;
66628;SDS011;53532;53.084;6.352;2023-04-25T02:54:06;15.07;;;3.78;;
66628;SDS011;53532;53.084;6.352;2023-04-25T02:56:32;14.50;;;3.40;;
66628;SDS011;53532;53.084;6.352;2023-04-25T02:58:58;10.77;;;3.20;;
66628;SDS011;53532;53.084;6.352;2023-04-25T03:01:24;13.15;;;3.55;;
66628;SDS011;53532;53.084;6.352;2023-04-25T03:03:52;9.45;;;3.17;;
66628;SDS011;53532;53.084;6.352;2023-04-25T03:06:18;12.05;;;3.03;;
66628;SDS011;53532;53.084;6.352;2023-04-25T03:08:44;12.52;;;2.95;;
66628;SDS011;53532;53.084;6.352;2023-04-25T03:11:11;11.35;;;2.50;;
66628;SDS011;53532;53.084;6.352;2023-04-25T03:13:37;9.98;;;2.58;;
66628;SDS011;53532;53.084;6.352;2023-04-25T03:16:03;11.57;;;2.80;;
66628;SDS011;53532;53.084;6.352;2023-04-25T03:18:30;10.40;;;2.53;;
66628;SDS011;53532;53.084;6.352;2023-04-25T03:20:58;9.55;;;2.40;;
66628;SDS011;53532;53.084;6.352;2023-04-25T03:23:24;9.68;;;2.28;;
66628;SDS011;53532;53.084;6.352;2023-04-25T03:25:51;10.40;;;2.10;;
66628;SDS011;53532;53.084;6.352;2023-04-25T03:28:17;9.37;;;2.53;;
66628;SDS011;53532;53.084;6.352;2023-04-25T03:30:43;7.13;;;2.20;;
66628;SDS011;53532;53.084;6.352;2023-04-25T03:33:09;7.45;;;2.25;;
66628;SDS011;53532;53.084;6.352;2023-04-25T03:35:35;9.27;;;2.30;;
66628;SDS011;53532;53.084;6.352;2023-04-25T03:38:03;14.23;;;2.92;;
66628;SDS011;53532;53.084;6.352;2023-04-25T03:40:29;9.15;;;1.98;;
66628;SDS011;53532;53.084;6.352;2023-04-25T03:42:55;7.33;;;2.43;;
66628;SDS011;53532;53.084;6.352;2023-04-25T03:45:21;9.90;;;2.43;;
66628;SDS011;53532;53.084;6.352;2023-04-25T03:47:48;9.23;;;2.30;;
66628;SDS011;53532;53.084;6.352;2023-04-25T03:50:14;10.50;;;2.60;;
66628;SDS011;53532;53.084;6.352;2023-04-25T03:52:40;10.57;;;2.50;;
66628;SDS011;53532;53.084;6.352;2023-04-25T03:55:08;8.20;;;2.70;;
66628;SDS011;53532;53.084;6.352;2023-04-25T03:57:34;8.90;;;2.50;;
66628;SDS011;53532;53.084;6.352;2023-04-25T04:00:01;9.40;;;2.70;;
66628;SDS011;53532;53.084;6.352;2023-04-25T04:02:28;10.87;;;2.87;;
66628;SDS011;53532;53.084;6.352;2023-04-25T04:04:54;15.07;;;3.30;;
66628;SDS011;53532;53.084;6.352;2023-04-25T04:07:21;9.83;;;2.60;;
66628;SDS011;53532;53.084;6.352;2023-04-25T04:09:47;12.73;;;2.83;;
66628;SDS011;53532;53.084;6.352;2023-04-25T04:12:15;9.10;;;2.30;;
66628;SDS011;53532;53.084;6.352;2023-04-25T04:14:41;6.72;;;1.95;;
66628;SDS011;53532;53.084;6.352;2023-04-25T04:17:07;8.57;;;2.13;;
66628;SDS011;53532;53.084;6.352;2023-04-25T04:19:33;13.00;;;2.40;;
66628;SDS011;53532;53.084;6.352;2023-04-25T04:21:59;11.80;;;2.73;;
66628;SDS011;53532;53.084;6.352;2023-04-25T04:24:26;8.93;;;2.20;;
66628;SDS011;53532;53.084;6.352;2023-04-25T04:26:52;8.17;;;2.20;;
66628;SDS011;53532;53.084;6.352;2023-04-25T04:29:19;8.17;;;2.17;;
66628;SDS011;53532;53.084;6.352;2023-04-25T04:31:47;8.52;;;2.22;;
66628;SDS011;53532;53.084;6.352;2023-04-25T04:34:13;11.03;;;2.27;;
66628;SDS011;53532;53.084;6.352;2023-04-25T04:36:39;11.70;;;2.50;;
66628;SDS011;53532;53.084;6.352;2023-04-25T04:39:06;9.20;;;2.43;;
66628;SDS011;53532;53.084;6.352;2023-04-25T04:41:34;10.00;;;2.87;;
66628;SDS011;53532;53.084;6.352;2023-04-25T04:44:00;11.53;;;2.40;;
66628;SDS011;53532;53.084;6.352;2023-04-25T04:46:27;11.87;;;2.73;;
66628;SDS011;53532;53.084;6.352;2023-04-25T04:48:54;11.03;;;2.37;;
66628;SDS011;53532;53.084;6.352;2023-04-25T04:51:21;10.70;;;2.30;;
66628;SDS011;53532;53.084;6.352;2023-04-25T04:53:47;12.40;;;2.70;;
66628;SDS011;53532;53.084;6.352;2023-04-25T04:56:13;11.43;;;2.83;;
66628;SDS011;53532;53.084;6.352;2023-04-25T04:58:40;13.87;;;2.97;;
66628;SDS011;53532;53.084;6.352;2023-04-25T05:01:06;10.37;;;2.80;;
66628;SDS011;53532;53.084;6.352;2023-04-25T05:03:33;11.83;;;3.00;;
66628;SDS011;53532;53.084;6.352;2023-04-25T05:06:00;11.30;;;2.93;;
66628;SDS011;53532;53.084;6.352;2023-04-25T05:08:26;14.50;;;3.40;;
66628;SDS011;53532;53.084;6.352;2023-04-25T05:10:52;13.30;;;2.87;;
66628;SDS011;53532;53.084;6.352;2023-04-25T05:13:18;12.30;;;3.00;;
66628;SDS011;53532;53.084;6.352;2023-04-25T05:15:44;13.07;;;2.77;;
66628;SDS011;53532;53.084;6.352;2023-04-25T05:18:10;12.32;;;2.80;;
66628;SDS011;53532;53.084;6.352;2023-04-25T05:20:38;11.55;;;3.03;;
66628;SDS011;53532;53.084;6.352;2023-04-25T05:23:04;12.30;;;2.80;;
66628;SDS011;53532;53.084;6.352;2023-04-25T05:25:30;15.25;;;3.70;;
66628;SDS011;53532;53.084;6.352;2023-04-25T05:27:56;13.68;;;3.40;;
66628;SDS011;53532;53.084;6.352;2023-04-25T05:30:23;14.90;;;3.28;;
66628;SDS011;53532;53.084;6.352;2023-04-25T05:32:49;17.93;;;3.43;;
66628;SDS011;53532;53.084;6.352;2023-04-25T05:35:16;14.00;;;3.33;;
66628;SDS011;53532;53.084;6.352;2023-04-25T05:37:43;11.45;;;3.17;;
66628;SDS011;53532;53.084;6.352;2023-04-25T05:40:09;13.17;;;3.33;;
66628;SDS011;53532;53.084;6.352;2023-04-25T05:42:35;13.40;;;4.00;;
66628;SDS011;53532;53.084;6.352;2023-04-25T05:45:02;15.85;;;3.28;;
66628;SDS011;53532;53.084;6.352;2023-04-25T05:47:29;10.13;;;3.03;;
66628;SDS011;53532;53.084;6.352;2023-04-25T05:49:55;17.35;;;3.47;;
66628;SDS011;53532;53.084;6.352;2023-04-25T05:52:21;15.35;;;2.85;;
66628;SDS011;53532;53.084;6.352;2023-04-25T05:54:49;13.52;;;2.90;;
66628;SDS011;53532;53.084;6.352;2023-04-25T05:57:19;12.63;;;2.95;;
66628;SDS011;53532;53.084;6.352;2023-04-25T05:59:46;13.15;;;2.95;;
66628;SDS011;53532;53.084;6.352;2023-04-25T06:02:12;11.73;;;3.10;;
66628;SDS011;53532;53.084;6.352;2023-04-25T06:04:38;11.30;;;3.00;;
66628;SDS011;53532;53.084;6.352;2023-04-25T06:07:04;15.40;;;3.33;;
66628;SDS011;53532;53.084;6.352;2023-04-25T06:09:30;11.70;;;2.70;;
66628;SDS011;53532;53.084;6.352;2023-04-25T06:11:58;11.05;;;2.63;;
66628;SDS011;53532;53.084;6.352;2023-04-25T06:14:24;12.30;;;2.60;;
66628;SDS011;53532;53.084;6.352;2023-04-25T06:16:50;12.20;;;2.50;;
66628;SDS011;53532;53.084;6.352;2023-04-25T06:19:16;13.02;;;2.50;;
66628;SDS011;53532;53.084;6.352;2023-04-25T06:21:42;13.27;;;2.58;;
66628;SDS011;53532;53.084;6.352;2023-04-25T06:24:09;18.38;;;3.13;;
66628;SDS011;53532;53.084;6.352;2023-04-25T06:26:35;13.93;;;3.67;;
66628;SDS011;53532;53.084;6.352;2023-04-25T06:29:02;12.98;;;3.50;;
66628;SDS011;53532;53.084;6.352;2023-04-25T06:31:29;10.88;;;2.65;;
66628;SDS011;53532;53.084;6.352;2023-04-25T06:33:57;12.20;;;2.55;;
66628;SDS011;53532;53.084;6.352;2023-04-25T06:36:23;14.15;;;2.30;;
66628;SDS011;53532;53.084;6.352;2023-04-25T06:38:52;12.20;;;2.72;;
66628;SDS011;53532;53.084;6.352;2023-04-25T06:41:19;9.82;;;2.30;;
66628;SDS011;53532;53.084;6.352;2023-04-25T06:43:46;6.97;;;2.05;;
66628;SDS011;53532;53.084;6.352;2023-04-25T06:46:13;9.52;;;2.40;;
66628;SDS011;53532;53.084;6.352;2023-04-25T06:48:39;6.72;;;1.95;;
66628;SDS011;53532;53.084;6.352;2023-04-25T06:51:06;8.00;;;1.80;;
66628;SDS011;53532;53.084;6.352;2023-04-25T06:53:32;6.47;;;2.20;;
66628;SDS011;53532;53.084;6.352;2023-04-25T06:55:58;8.65;;;2.25;;
66628;SDS011;53532;53.084;6.352;2023-04-25T06:58:24;8.25;;;1.73;;
66628;SDS011;53532;53.084;6.352;2023-04-25T07:00:51;9.70;;;1.92;;
66628;SDS011;53532;53.084;6.352;2023-04-25T07:03:18;8.55;;;1.80;;
66628;SDS011;53532;53.084;6.352;2023-04-25T07:05:45;11.05;;;2.22;;
66628;SDS011;53532;53.084;6.352;2023-04-25T07:08:11;10.43;;;2.10;;
66628;SDS011;53532;53.084;6.352;2023-04-25T07:10:37;12.80;;;2.78;;
66628;SDS011;53532;53.084;6.352;2023-04-25T07:13:04;6.90;;;1.83;;
66628;SDS011;53532;53.084;6.352;2023-04-25T07:15:30;9.63;;;2.30;;
66628;SDS011;53532;53.084;6.352;2023-04-25T07:17:56;10.18;;;2.20;;
66628;SDS011;53532;53.084;6.352;2023-04-25T07:20:24;9.07;;;2.35;;
66628;SDS011;53532;53.084;6.352;2023-04-25T07:22:50;8.80;;;1.92;;
66628;SDS011;53532;53.084;6.352;2023-04-25T07:25:19;9.50;;;1.85;;
66628;SDS011;53532;53.084;6.352;2023-04-25T07:27:45;9.05;;;1.77;;
66628;SDS011;53532;53.084;6.352;2023-04-25T07:30:11;11.25;;;2.28;;
66628;SDS011;53532;53.084;6.352;2023-04-25T07:32:38;8.88;;;1.88;;
66628;SDS011;53532;53.084;6.352;2023-04-25T07:35:05;9.50;;;2.00;;
66628;SDS011;53532;53.084;6.352;2023-04-25T07:37:33;10.05;;;2.20;;
66628;SDS011;53532;53.084;6.352;2023-04-25T07:39:59;10.32;;;1.77;;
66628;SDS011;53532;53.084;6.352;2023-04-25T07:42:26;9.25;;;1.80;;
66628;SDS011;53532;53.084;6.352;2023-04-25T07:44:52;9.20;;;1.58;;
66628;SDS011;53532;53.084;6.352;2023-04-25T07:47:18;6.43;;;1.50;;
66628;SDS011;53532;53.084;6.352;2023-04-25T07:49:44;5.45;;;1.60;;
66628;SDS011;53532;53.084;6.352;2023-04-25T07:52:11;7.50;;;1.58;;
66628;SDS011;53532;53.084;6.352;2023-04-25T07:54:38;7.10;;;1.63;;
66628;SDS011;53532;53.084;6.352;2023-04-25T07:57:04;6.75;;;1.52;;
66628;SDS011;53532;53.084;6.352;2023-04-25T07:59:33;10.02;;;2.50;;
66628;SDS011;53532;53.084;6.352;2023-04-25T08:02:00;7.72;;;1.65;;
66628;SDS011;53532;53.084;6.352;2023-04-25T08:04:26;8.82;;;1.83;;
66628;SDS011;53532;53.084;6.352;2023-04-25T08:06:52;7.82;;;1.58;;
66628;SDS011;53532;53.084;6.352;2023-04-25T08:09:19;7.25;;;1.80;;
66628;SDS011;53532;53.084;6.352;2023-04-25T08:11:46;9.27;;;1.77;;
66628;SDS011;53532;53.084;6.352;2023-04-25T08:14:12;10.18;;;1.80;;
66628;SDS011;53532;53.084;6.352;2023-04-25T08:16:39;9.25;;;2.10;;
66628;SDS011;53532;53.084;6.352;2023-04-25T08:19:05;9.55;;;1.92;;
66628;SDS011;53532;53.084;6.352;2023-04-25T08:21:31;9.90;;;1.90;;
66628;SDS011;53532;53.084;6.352;2023-04-25T08:23:58;8.52;;;1.50;;
66628;SDS011;53532;53.084;6.352;2023-04-25T08:26:24;11.05;;;2.10;;
66628;SDS011;53532;53.084;6.352;2023-04-25T08:28:52;9.13;;;1.88;;
66628;SDS011;53532;53.084;6.352;2023-04-25T08:31:18;6.88;;;1.60;;
66628;SDS011;53532;53.084;6.352;2023-04-25T08:33:44;5.95;;;1.23;;
66628;SDS011;53532;53.084;6.352;2023-04-25T08:36:10;5.38;;;1.45;;
66628;SDS011;53532;53.084;6.352;2023-04-25T08:38:37;6.63;;;1.38;;
66628;SDS011;53532;53.084;6.352;2023-04-25T08:41:03;6.70;;;1.60;;
66628;SDS011;53532;53.084;6.352;2023-04-25T08:43:30;6.00;;;1.50;;
66628;SDS011;53532;53.084;6.352;2023-04-25T08:45:59;6.60;;;1.40;;
66628;SDS011;53532;53.084;6.352;2023-04-25T08:48:26;6.20;;;1.23;;
66628;SDS011;53532;53.084;6.352;2023-04-25T08:50:56;6.63;;;1.50;;
66628;SDS011;53532;53.084;6.352;2023-04-25T08:53:25;7.13;;;1.70;;
66628;SDS011;53532;53.084;6.352;2023-04-25T08:55:51;6.72;;;1.63;;
66628;SDS011;53532;53.084;6.352;2023-04-25T08:58:19;10.10;;;1.92;;
66628;SDS011;53532;53.084;6.352;2023-04-25T09:00:45;7.28;;;1.95;;
66628;SDS011;53532;53.084;6.352;2023-04-25T09:03:13;6.72;;;1.85;;
66628;SDS011;53532;53.084;6.352;2023-04-25T09:05:40;8.63;;;2.13;;
66628;SDS011;53532;53.084;6.352;2023-04-25T09:08:06;8.48;;;1.95;;
66628;SDS011;53532;53.084;6.352;2023-04-25T09:10:32;8.83;;;1.70;;
66628;SDS011;53532;53.084;6.352;2023-04-25T09:13:02;7.90;;;1.75;;
66628;SDS011;53532;53.084;6.352;2023-04-25T09:15:29;9.85;;;2.03;;
66628;SDS011;53532;53.084;6.352;2023-04-25T09:17:56;7.90;;;1.80;;
66628;SDS011;53532;53.084;6.352;2023-04-25T09:20:23;10.05;;;2.10;;
66628;SDS011;53532;53.084;6.352;2023-04-25T09:22:50;9.40;;;1.92;;
66628;SDS011;53532;53.084;6.352;2023-04-25T09:25:27;8.38;;;1.92;;
66628;SDS011;53532;53.084;6.352;2023-04-25T09:28:00;9.50;;;1.88;;
66628;SDS011;53532;53.084;6.352;2023-04-25T09:30:29;9.45;;;2.30;;
66628;SDS011;53532;53.084;6.352;2023-04-25T09:32:56;8.82;;;2.55;;
66628;SDS011;53532;53.084;6.352;2023-04-25T09:35:25;10.75;;;2.33;;
66628;SDS011;53532;53.084;6.352;2023-04-25T09:37:51;11.40;;;2.33;;
66628;SDS011;53532;53.084;6.352;2023-04-25T09:40:17;9.32;;;2.30;;
66628;SDS011;53532;53.084;6.352;2023-04-25T09:42:44;12.82;;;2.60;;
66628;SDS011;53532;53.084;6.352;2023-04-25T09:45:12;14.48;;;2.83;;
66628;SDS011;53532;53.084;6.352;2023-04-25T09:47:41;14.50;;;3.75;;
66628;SDS011;53532;53.084;6.352;2023-04-25T09:50:13;12.13;;;2.65;;
66628;SDS011;53532;53.084;6.352;2023-04-25T09:52:41;10.10;;;3.08;;
66628;SDS011;53532;53.084;6.352;2023-04-25T09:55:08;11.68;;;2.45;;
66628;SDS011;53532;53.084;6.352;2023-04-25T09:57:34;10.98;;;2.92;;
66628;SDS011;53532;53.084;6.352;2023-04-25T10:00:05;11.55;;;2.55;;
66628;SDS011;53532;53.084;6.352;2023-04-25T10:02:34;9.75;;;2.00;;
66628;SDS011;53532;53.084;6.352;2023-04-25T10:05:01;10.85;;;2.55;;
66628;SDS011;53532;53.084;6.352;2023-04-25T10:07:29;7.22;;;2.45;;
66628;SDS011;53532;53.084;6.352;2023-04-25T10:09:58;9.75;;;2.10;;
66628;SDS011;53532;53.084;6.352;2023-04-25T10:12:26;11.35;;;2.50;;
66628;SDS011;53532;53.084;6.352;2023-04-25T10:14:53;10.15;;;2.20;;
66628;SDS011;53532;53.084;6.352;2023-04-25T10:17:20;9.02;;;2.10;;
66628;SDS011;53532;53.084;6.352;2023-04-25T10:19:46;10.70;;;2.20;;
66628;SDS011;53532;53.084;6.352;2023-04-25T10:22:14;8.35;;;1.75;;
66628;SDS011;53532;53.084;6.352;2023-04-25T10:24:42;7.72;;;2.20;;
66628;SDS011;53532;53.084;6.352;2023-04-25T10:27:10;10.40;;;2.35;;
66628;SDS011;53532;53.084;6.352;2023-04-25T10:29:36;10.00;;;2.10;;
66628;SDS011;53532;53.084;6.352;2023-04-25T10:32:03;10.27;;;2.40;;
66628;SDS011;53532;53.084;6.352;2023-04-25T10:34:39;11.05;;;2.55;;
66628;SDS011;53532;53.084;6.352;2023-04-25T10:37:08;8.73;;;2.15;;
66628;SDS011;53532;53.084;6.352;2023-04-25T10:39:35;11.10;;;2.40;;
66628;SDS011;53532;53.084;6.352;2023-04-25T10:42:01;10.95;;;2.42;;
66628;SDS011;53532;53.084;6.352;2023-04-25T10:44:29;14.82;;;2.65;;
66628;SDS011;53532;53.084;6.352;2023-04-25T10:46:56;13.02;;;2.00;;
66628;SDS011;53532;53.084;6.352;2023-04-25T10:49:33;9.65;;;2.55;;
66628;SDS011;53532;53.084;6.352;2023-04-25T10:52:15;8.00;;;1.70;;
66628;SDS011;53532;53.084;6.352;2023-04-25T10:54:42;7.53;;;1.50;;
66628;SDS011;53532;53.084;6.352;2023-04-25T10:59:49;8.68;;;2.13;;
66628;SDS011;53532;53.084;6.352;2023-04-25T11:02:15;11.98;;;2.10;;
66628;SDS011;53532;53.084;6.352;2023-04-25T11:04:43;13.23;;;2.30;;
66628;SDS011;53532;53.084;6.352;2023-04-25T11:07:10;15.48;;;2.60;;
66628;SDS011;53532;53.084;6.352;2023-04-25T11:09:39;11.02;;;2.40;;
66628;SDS011;53532;53.084;6.352;2023-04-25T11:12:07;11.23;;;1.98;;
66628;SDS011;53532;53.084;6.352;2023-04-25T11:14:33;9.68;;;2.50;;
66628;SDS011;53532;53.084;6.352;2023-04-25T11:17:00;10.70;;;2.25;;
66628;SDS011;53532;53.084;6.352;2023-04-25T11:19:29;12.48;;;2.58;;
66628;SDS011;53532;53.084;6.352;2023-04-25T11:21:57;10.60;;;2.42;;
66628;SDS011;53532;53.084;6.352;2023-04-25T11:24:25;8.75;;;2.40;;
66628;SDS011;53532;53.084;6.352;2023-04-25T11:26:51;11.85;;;2.60;;
66628;SDS011;53532;53.084;6.352;2023-04-25T11:29:18;7.05;;;1.75;;
66628;SDS011;53532;53.084;6.352;2023-04-25T11:31:44;7.43;;;1.90;;
66628;SDS011;53532;53.084;6.352;2023-04-25T11:34:16;10.48;;;2.28;;
66628;SDS011;53532;53.084;6.352;2023-04-25T11:36:43;6.70;;;1.90;;
66628;SDS011;53532;53.084;6.352;2023-04-25T11:39:11;5.00;;;1.70;;
66628;SDS011;53532;53.084;6.352;2023-04-25T11:41:38;8.68;;;2.20;;
66628;SDS011;53532;53.084;6.352;2023-04-25T11:44:05;10.40;;;2.50;;
66628;SDS011;53532;53.084;6.352;2023-04-25T11:46:33;16.40;;;2.55;;
66628;SDS011;53532;53.084;6.352;2023-04-25T11:49:00;7.47;;;2.10;;
66628;SDS011;53532;53.084;6.352;2023-04-25T11:51:26;7.60;;;1.70;;
66628;SDS011;53532;53.084;6.352;2023-04-25T11:53:52;8.52;;;1.90;;
66628;SDS011;53532;53.084;6.352;2023-04-25T11:56:20;8.88;;;1.92;;
66628;SDS011;53532;53.084;6.352;2023-04-25T11:58:59;9.13;;;2.35;;
66628;SDS011;53532;53.084;6.352;2023-04-25T12:03:55;4.43;;;1.73;;
66628;SDS011;53532;53.084;6.352;2023-04-25T12:06:21;3.28;;;1.48;;
66628;SDS011;53532;53.084;6.352;2023-04-25T12:09:03;6.00;;;1.65;;
66628;SDS011;53532;53.084;6.352;2023-04-25T12:11:31;6.47;;;2.00;;
66628;SDS011;53532;53.084;6.352;2023-04-25T12:14:01;6.45;;;1.73;;
66628;SDS011;53532;53.084;6.352;2023-04-25T12:16:27;5.65;;;1.80;;
66628;SDS011;53532;53.084;6.352;2023-04-25T12:18:54;9.55;;;2.40;;
66628;SDS011;53532;53.084;6.352;2023-04-25T12:21:22;7.22;;;1.85;;
66628;SDS011;53532;53.084;6.352;2023-04-25T12:23:48;10.05;;;2.17;;
66628;SDS011;53532;53.084;6.352;2023-04-25T12:26:14;8.30;;;1.95;;
66628;SDS011;53532;53.084;6.352;2023-04-25T12:28:44;9.10;;;2.58;;
66628;SDS011;53532;53.084;6.352;2023-04-25T12:31:12;8.40;;;2.00;;
66628;SDS011;53532;53.084;6.352;2023-04-25T12:33:40;9.73;;;2.10;;
66628;SDS011;53532;53.084;6.352;2023-04-25T12:36:08;9.43;;;1.83;;
66628;SDS011;53532;53.084;6.352;2023-04-25T12:38:37;9.52;;;2.20;;
66628;SDS011;53532;53.084;6.352;2023-04-25T12:41:03;10.82;;;2.45;;
66628;SDS011;53532;53.084;6.352;2023-04-25T12:43:30;7.93;;;1.85;;
66628;SDS011;53532;53.084;6.352;2023-04-25T12:45:58;9.95;;;2.60;;
66628;SDS011;53532;53.084;6.352;2023-04-25T12:48:24;9.38;;;2.10;;
66628;SDS011;53532;53.084;6.352;2023-04-25T12:50:50;9.57;;;1.98;;
66628;SDS011;53532;53.084;6.352;2023-04-25T12:53:17;10.25;;;1.77;;
66628;SDS011;53532;53.084;6.352;2023-04-25T12:55:44;8.77;;;2.47;;
66628;SDS011;53532;53.084;6.352;2023-04-25T12:58:13;11.13;;;2.05;;
66628;SDS011;53532;53.084;6.352;2023-04-25T13:00:39;12.70;;;2.15;;
66628;SDS011;53532;53.084;6.352;2023-04-25T13:03:07;9.35;;;2.10;;
66628;SDS011;53532;53.084;6.352;2023-04-25T13:05:34;8.65;;;1.83;;
66628;SDS011;53532;53.084;6.352;2023-04-25T13:08:00;7.97;;;2.17;;
66628;SDS011;53532;53.084;6.352;2023-04-25T13:10:26;7.57;;;2.00;;
66628;SDS011;53532;53.084;6.352;2023-04-25T13:12:52;9.05;;;1.88;;
66628;SDS011;53532;53.084;6.352;2023-04-25T13:15:19;8.10;;;2.30;;
66628;SDS011;53532;53.084;6.352;2023-04-25T13:17:45;8.52;;;1.77;;
66628;SDS011;53532;53.084;6.352;2023-04-25T13:20:13;7.18;;;1.73;;
66628;SDS011;53532;53.084;6.352;2023-04-25T13:22:41;9.23;;;1.75;;
66628;SDS011;53532;53.084;6.352;2023-04-25T13:25:08;7.22;;;1.80;;
66628;SDS011;53532;53.084;6.352;2023-04-25T13:27:34;7.35;;;2.20;;
66628;SDS011;53532;53.084;6.352;2023-04-25T13:30:01;8.40;;;2.03;;
66628;SDS011;53532;53.084;6.352;2023-04-25T13:32:32;8.70;;;2.55;;
66628;SDS011;53532;53.084;6.352;2023-04-25T13:34:59;13.15;;;2.50;;
66628;SDS011;53532;53.084;6.352;2023-04-25T13:37:40;11.80;;;2.50;;
66628;SDS011;53532;53.084;6.352;2023-04-25T13:40:07;11.73;;;2.45;;
66628;SDS011;53532;53.084;6.352;2023-04-25T13:42:34;11.43;;;2.70;;
66628;SDS011;53532;53.084;6.352;2023-04-25T13:45:02;7.78;;;2.47;;
66628;SDS011;53532;53.084;6.352;2023-04-25T13:47:28;10.45;;;3.20;;
66628;SDS011;53532;53.084;6.352;2023-04-25T13:49:55;9.48;;;3.03;;
66628;SDS011;53532;53.084;6.352;2023-04-25T13:52:21;8.60;;;3.08;;
66628;SDS011;53532;53.084;6.352;2023-04-25T13:54:50;8.02;;;2.47;;
66628;SDS011;53532;53.084;6.352;2023-04-25T13:57:17;9.68;;;2.50;;
66628;SDS011;53532;53.084;6.352;2023-04-25T13:59:43;8.70;;;2.40;;
66628;SDS011;53532;53.084;6.352;2023-04-25T14:02:09;10.30;;;2.40;;
66628;SDS011;53532;53.084;6.352;2023-04-25T14:04:35;11.13;;;2.55;;
66628;SDS011;53532;53.084;6.352;2023-04-25T14:07:02;11.10;;;2.63;;
66628;SDS011;53532;53.084;6.352;2023-04-25T14:09:30;12.05;;;2.80;;
66628;SDS011;53532;53.084;6.352;2023-04-25T14:11:58;10.55;;;2.55;;
66628;SDS011;53532;53.084;6.352;2023-04-25T14:14:25;10.10;;;2.83;;
66628;SDS011;53532;53.084;6.352;2023-04-25T14:16:53;10.25;;;2.22;;
66628;SDS011;53532;53.084;6.352;2023-04-25T14:19:20;7.05;;;2.40;;
66628;SDS011;53532;53.084;6.352;2023-04-25T14:21:54;10.02;;;2.72;;
66628;SDS011;53532;53.084;6.352;2023-04-25T14:24:23;10.18;;;2.30;;
66628;SDS011;53532;53.084;6.352;2023-04-25T14:26:50;7.18;;;2.28;;
66628;SDS011;53532;53.084;6.352;2023-04-25T14:29:20;10.27;;;2.28;;
66628;SDS011;53532;53.084;6.352;2023-04-25T14:31:50;8.55;;;2.22;;
66628;SDS011;53532;53.084;6.352;2023-04-25T14:34:16;8.90;;;2.28;;
66628;SDS011;53532;53.084;6.352;2023-04-25T14:36:43;6.30;;;1.63;;
66628;SDS011;53532;53.084;6.352;2023-04-25T14:39:10;8.43;;;2.00;;
66628;SDS011;53532;53.084;6.352;2023-04-25T14:41:39;5.72;;;1.60;;
66628;SDS011;53532;53.084;6.352;2023-04-25T14:44:06;8.13;;;2.00;;